createdAt,value
2022-08-22T00:00:17.941Z,97565.88
2022-08-22T00:02:43.110Z,97609.06
2022-08-22T00:02:45.056Z,97695.91
2022-08-22T00:02:57.904Z,97575.09
2022-08-22T00:02:59.527Z,97619.44
2022-08-22T00:03:00.888Z,97622.59
2022-08-22T00:03:22.696Z,97569.03
2022-08-22T00:06:20.570Z,97573.16
2022-08-22T00:09:03.505Z,97561.09
2022-08-22T00:12:08.521Z,97573.69
2022-08-22T00:14:51.612Z,97576.41
2022-08-22T00:17:41.421Z,97567.81
2022-08-22T00:20:20.002Z,97573.81
2022-08-22T00:23:25.346Z,97570.03
2022-08-22T00:26:03.931Z,97570.88
2022-08-22T00:28:48.329Z,97575.06
2022-08-22T00:31:43.632Z,97566.16
2022-08-22T00:34:38.026Z,97571.00
2022-08-22T00:37:32.406Z,97577.13
2022-08-22T00:40:16.027Z,97569.69
2022-08-22T00:43:10.366Z,97562.72
2022-08-22T00:46:06.121Z,97571.03
2022-08-22T00:48:46.568Z,97575.69
2022-08-22T00:52:13.786Z,97576.19
2022-08-22T00:55:20.605Z,97571.88
2022-08-22T00:58:13.766Z,97572.03
2022-08-22T01:00:53.643Z,97584.75
2022-08-22T01:03:44.765Z,97576.16
2022-08-22T01:07:15.441Z,97570.44
2022-08-22T01:10:14.867Z,97572.72
2022-08-22T01:13:33.911Z,97570.63
2022-08-22T01:16:30.196Z,97562.13
2022-08-22T01:19:45.121Z,97557.44
2022-08-22T01:22:46.132Z,97550.34
2022-08-22T01:25:44.454Z,97555.66
2022-08-22T01:28:33.577Z,97560.84
2022-08-22T01:31:44.450Z,97563.66
2022-08-22T01:34:44.110Z,97571.91
2022-08-22T01:37:25.290Z,97555.72
2022-08-22T01:40:47.606Z,97567.47
2022-08-22T01:44:00.448Z,97569.13
2022-08-22T01:47:01.571Z,97578.44
2022-08-22T01:49:39.550Z,97574.44
2022-08-22T01:52:31.948Z,97567.47
2022-08-22T01:55:08.266Z,97564.97
2022-08-22T01:58:01.307Z,97562.31
2022-08-22T02:00:51.421Z,97558.84
2022-08-22T02:03:30.928Z,97563.44
2022-08-22T02:06:46.088Z,97567.25
2022-08-22T02:09:32.610Z,97567.75
2022-08-22T02:12:21.357Z,97565.44
2022-08-22T02:15:20.978Z,97564.59
2022-08-22T02:18:01.338Z,97558.13
2022-08-22T02:20:47.701Z,97561.44
2022-08-22T02:23:33.122Z,97551.84
2022-08-22T02:26:26.252Z,97563.28
2022-08-22T02:29:47.149Z,97556.47
2022-08-22T02:32:37.586Z,97563.09
2022-08-22T02:35:20.583Z,97563.09
2022-08-22T02:37:47.655Z,97570.84
2022-08-22T02:40:34.358Z,97565.09
2022-08-22T02:43:20.853Z,97568.84
2022-08-22T02:46:16.318Z,97568.03
2022-08-22T02:49:08.323Z,97567.03
2022-08-22T02:52:10.558Z,97563.56
2022-08-22T02:54:45.727Z,97570.28
2022-08-22T02:57:27.444Z,97557.69
2022-08-22T03:00:31.189Z,97555.38
2022-08-22T03:03:03.401Z,97548.56
2022-08-22T03:05:41.756Z,97550.03
2022-08-22T03:08:38.675Z,97549.19
2022-08-22T03:11:30.143Z,97560.34
2022-08-22T03:14:20.709Z,97561.63
2022-08-22T03:16:58.556Z,97555.31
2022-08-22T03:19:50.778Z,97560.97
2022-08-22T03:22:35.191Z,97565.09
2022-08-22T03:25:39.817Z,97564.81
2022-08-22T03:28:19.775Z,97562.31
2022-08-22T03:31:14.905Z,97562.50
2022-08-22T03:33:43.557Z,97559.97
2022-08-22T03:36:28.807Z,97553.03
2022-08-22T03:39:51.834Z,97553.22
2022-08-22T03:43:00.353Z,97551.03
2022-08-22T03:46:18.262Z,97553.50
2022-08-22T03:49:24.021Z,97559.09
2022-08-22T03:52:19.043Z,97558.91
2022-08-22T03:55:11.121Z,97554.56
2022-08-22T03:57:48.363Z,97550.91
2022-08-22T04:00:40.157Z,97538.13
2022-08-22T04:03:35.411Z,97542.25
2022-08-22T04:06:56.415Z,97543.09
2022-08-22T04:09:35.699Z,97553.78
2022-08-22T04:12:39.384Z,97555.06
2022-08-22T04:15:39.981Z,97559.75
2022-08-22T04:18:40.473Z,97559.66
2022-08-22T04:21:57.735Z,97558.31
2022-08-22T04:24:37.519Z,97570.97
2022-08-22T04:27:15.200Z,97560.03
2022-08-22T04:30:18.123Z,97566.97
2022-08-22T04:33:05.125Z,97570.44
2022-08-22T04:36:06.223Z,97580.97
2022-08-22T04:38:47.832Z,97582.72
2022-08-22T04:41:33.135Z,97582.81
2022-08-22T04:44:13.877Z,97586.41
2022-08-22T04:47:06.054Z,97594.00
2022-08-22T04:49:48.378Z,97596.09
2022-08-22T04:52:37.755Z,97587.75
2022-08-22T04:55:55.089Z,97596.41
2022-08-22T04:58:43.700Z,97604.00
2022-08-22T05:01:55.030Z,97614.41
2022-08-22T05:05:04.594Z,97604.81
2022-08-22T05:07:53.401Z,97609.56
2022-08-22T05:10:33.693Z,97616.34
2022-08-22T05:13:12.896Z,97612.06
2022-08-22T05:15:48.663Z,97618.44
2022-08-22T05:18:49.720Z,97624.31
2022-08-22T05:21:27.286Z,97631.53
2022-08-22T05:24:07.462Z,97631.19
2022-08-22T05:26:42.291Z,97644.38
2022-08-22T05:29:14.637Z,97645.66
2022-08-22T05:31:50.779Z,97639.88
2022-08-22T05:34:28.475Z,97644.31
2022-08-22T05:37:14.294Z,97651.72
2022-08-22T05:39:51.487Z,97640.91
2022-08-22T05:42:39.151Z,97641.56
2022-08-22T05:45:12.343Z,97639.81
2022-08-22T05:47:55.715Z,97637.81
2022-08-22T05:50:50.410Z,97642.09
2022-08-22T05:53:27.387Z,97642.75
2022-08-22T05:56:13.971Z,97649.06
2022-08-22T05:58:47.153Z,97642.75
2022-08-22T06:01:29.702Z,97648.78
2022-08-22T06:04:09.929Z,97646.31
2022-08-22T06:07:28.323Z,97655.28
2022-08-22T06:10:53.885Z,97648.69
2022-08-22T06:13:37.271Z,97656.13
2022-08-22T06:16:34.372Z,97657.22
2022-08-22T06:19:05.067Z,97651.63
2022-08-22T06:21:51.979Z,97654.34
2022-08-22T06:24:26.441Z,97649.94
2022-08-22T06:27:04.348Z,97651.41
2022-08-22T06:29:44.343Z,97654.97
2022-08-22T06:32:58.220Z,97656.34
2022-08-22T06:35:50.703Z,97659.09
2022-08-22T06:38:21.605Z,97666.13
2022-08-22T06:40:54.348Z,97668.63
2022-08-22T06:43:25.431Z,97671.09
2022-08-22T06:45:53.675Z,97671.72
2022-08-22T06:48:24.347Z,97672.53
2022-08-22T06:51:01.466Z,97666.59
2022-08-22T06:53:48.442Z,97668.88
2022-08-22T06:56:29.754Z,97677.75
2022-08-22T06:59:07.513Z,97669.41
2022-08-22T07:02:00.439Z,97670.91
2022-08-22T07:04:29.182Z,97685.66
2022-08-22T07:07:00.824Z,97677.66
2022-08-22T07:09:41.091Z,97679.81
2022-08-22T07:12:20.271Z,97677.75
2022-08-22T07:14:52.691Z,97674.31
2022-08-22T07:17:30.349Z,97679.00
2022-08-22T07:20:23.749Z,97672.78
2022-08-22T07:22:57.671Z,97678.81
2022-08-22T07:25:26.989Z,97670.31
2022-08-22T07:28:21.685Z,97669.47
2022-08-22T07:31:34.433Z,97665.72
2022-08-22T07:34:20.397Z,97676.88
2022-08-22T07:37:28.193Z,97677.50
2022-08-22T07:40:30.279Z,97674.09
2022-08-22T07:43:32.891Z,97674.00
2022-08-22T07:46:37.284Z,97667.00
2022-08-22T07:49:25.718Z,97669.59
2022-08-22T07:52:08.146Z,97669.34
2022-08-22T07:54:47.090Z,97665.00
2022-08-22T07:57:30.020Z,97678.44
2022-08-22T08:00:01.493Z,97680.88
2022-08-22T08:02:29.830Z,97677.75
2022-08-22T08:05:00.517Z,97674.81
2022-08-22T08:07:30.448Z,97676.53
2022-08-22T08:10:12.916Z,97679.34
2022-08-22T08:12:57.938Z,97684.66
2022-08-22T08:15:35.082Z,97682.47
2022-08-22T08:18:14.411Z,97690.16
2022-08-22T08:20:42.324Z,97689.03
2022-08-22T08:23:12.904Z,97689.28
2022-08-22T08:26:03.858Z,97695.81
2022-08-22T08:28:34.905Z,97699.56
2022-08-22T08:31:19.201Z,97698.97
2022-08-22T08:34:12.133Z,97698.53
2022-08-22T08:37:02.950Z,97701.00
2022-08-22T08:39:50.973Z,97688.88
2022-08-22T08:43:22.766Z,97695.13
2022-08-22T08:46:57.521Z,97693.09
2022-08-22T08:50:10.572Z,97684.94
2022-08-22T08:53:36.721Z,97680.03
2022-08-22T08:56:32.293Z,97675.78
2022-08-22T08:59:35.551Z,97665.63
2022-08-22T09:02:47.338Z,97679.03
2022-08-22T09:05:49.112Z,97683.53
2022-08-22T09:08:42.360Z,97683.53
2022-08-22T09:11:28.617Z,97693.81
2022-08-22T09:14:44.400Z,97693.63
2022-08-22T09:17:25.417Z,97696.72
2022-08-22T09:20:46.431Z,97689.44
2022-08-22T09:23:53.246Z,97697.59
2022-08-22T09:26:37.780Z,97695.28
2022-08-22T09:29:54.616Z,97694.94
2022-08-22T09:32:48.842Z,97688.41
2022-08-22T09:35:27.137Z,97691.94
2022-08-22T09:38:10.250Z,97699.53
2022-08-22T09:41:00.617Z,97698.28
2022-08-22T09:43:44.214Z,97698.78
2022-08-22T09:46:29.493Z,97698.00
2022-08-22T09:49:33.063Z,97706.66
2022-08-22T09:52:43.441Z,97700.53
2022-08-22T09:55:43.429Z,97700.13
2022-08-22T09:58:44.695Z,97701.38
2022-08-22T10:01:43.216Z,97703.78
2022-08-22T10:04:37.640Z,97711.59
2022-08-22T10:07:35.402Z,97711.78
2022-08-22T10:10:26.120Z,97712.84
2022-08-22T10:13:11.936Z,97713.63
2022-08-22T10:15:57.249Z,97708.66
2022-08-22T10:18:42.182Z,97705.38
2022-08-22T10:21:24.391Z,97707.00
2022-08-22T10:23:57.811Z,97711.28
2022-08-22T10:26:44.665Z,97712.91
2022-08-22T10:30:12.561Z,97719.69
2022-08-22T10:33:02.591Z,97716.00
2022-08-22T10:35:51.703Z,97714.75
2022-08-22T10:38:36.157Z,97719.19
2022-08-22T10:41:45.537Z,97720.88
2022-08-22T10:44:57.631Z,97724.84
2022-08-22T10:47:39.273Z,97726.59
2022-08-22T10:50:23.763Z,97734.72
2022-08-22T10:53:37.453Z,97724.44
2022-08-22T10:56:27.393Z,97723.41
2022-08-22T10:59:23.025Z,97724.31
2022-08-22T11:02:11.339Z,97717.28
2022-08-22T11:05:20.105Z,97723.78
2022-08-22T11:08:02.245Z,97720.59
2022-08-22T11:11:04.600Z,97716.00
2022-08-22T11:13:43.214Z,97719.28
2022-08-22T11:16:44.814Z,97711.97
2022-08-22T11:19:46.878Z,97717.09
2022-08-22T11:22:24.677Z,97721.41
2022-08-22T11:25:15.336Z,97722.13
2022-08-22T11:28:19.685Z,97716.47
2022-08-22T11:31:07.542Z,97712.50
2022-08-22T11:33:49.108Z,97724.44
2022-08-22T11:36:46.840Z,97722.41
2022-08-22T11:39:51.487Z,97719.63
2022-08-22T11:42:33.427Z,97724.09
2022-08-22T11:45:06.163Z,97726.53
2022-08-22T11:48:00.586Z,97721.03
2022-08-22T11:50:45.370Z,97716.41
2022-08-22T11:53:44.388Z,97720.81
2022-08-22T11:56:20.389Z,97727.94
2022-08-22T11:59:53.984Z,97709.75
2022-08-22T12:03:04.848Z,97707.13
2022-08-22T12:05:47.188Z,97705.94
2022-08-22T12:08:34.077Z,97719.19
2022-08-22T12:11:39.137Z,97707.44
2022-08-22T12:14:28.986Z,97708.47
2022-08-22T12:18:01.844Z,97700.59
2022-08-22T12:21:09.121Z,97699.19
2022-08-22T12:24:11.076Z,97701.50
2022-08-22T12:27:13.921Z,97693.28
2022-08-22T12:30:13.731Z,97684.59
2022-08-22T12:33:23.070Z,97692.19
2022-08-22T12:36:36.358Z,97691.97
2022-08-22T12:39:47.309Z,97692.81
2022-08-22T12:42:51.431Z,97699.13
2022-08-22T12:45:41.679Z,97688.03
2022-08-22T12:48:32.268Z,97687.88
2022-08-22T12:51:40.359Z,97693.25
2022-08-22T12:54:31.800Z,97697.53
2022-08-22T12:57:25.170Z,97692.38
2022-08-22T13:00:23.061Z,97695.44
2022-08-22T13:02:55.780Z,97700.09
2022-08-22T13:05:28.987Z,97697.19
2022-08-22T13:08:05.470Z,97696.53
2022-08-22T13:10:47.952Z,97704.81
2022-08-22T13:13:39.861Z,97703.16
2022-08-22T13:16:20.023Z,97696.75
2022-08-22T13:18:57.602Z,97703.16
2022-08-22T13:21:36.224Z,97698.81
2022-08-22T13:24:16.955Z,97699.78
2022-08-22T13:27:03.208Z,97702.78
2022-08-22T13:30:00.905Z,97702.41
2022-08-22T13:32:35.448Z,97699.53
2022-08-22T13:35:11.335Z,97701.66
2022-08-22T13:37:55.236Z,97704.78
2022-08-22T13:40:31.104Z,97705.72
2022-08-22T13:43:11.263Z,97695.97
2022-08-22T13:45:49.367Z,97697.34
2022-08-22T13:48:16.828Z,97700.88
2022-08-22T13:51:14.625Z,97694.88
2022-08-22T13:54:01.042Z,97700.22
2022-08-22T13:56:52.608Z,97701.06
2022-08-22T13:59:55.414Z,97701.94
2022-08-22T14:02:57.527Z,97695.38
2022-08-22T14:05:39.276Z,97692.75
2022-08-22T14:08:22.917Z,97702.53
2022-08-22T14:11:06.987Z,97694.72
2022-08-22T14:13:57.098Z,97691.66
2022-08-22T14:16:52.135Z,97699.06
2022-08-22T14:19:52.930Z,97691.47
2022-08-22T14:22:34.828Z,97681.16
2022-08-22T14:25:17.363Z,97679.22
2022-08-22T14:28:03.006Z,97677.56
2022-08-22T14:30:54.602Z,97680.25
2022-08-22T14:33:48.264Z,97682.16
2022-08-22T14:36:59.555Z,97676.66
2022-08-22T14:39:37.879Z,97679.31
2022-08-22T14:42:23.042Z,97680.50
2022-08-22T14:45:11.555Z,97687.31
2022-08-22T14:48:31.311Z,97695.25
2022-08-22T14:51:05.932Z,97684.09
2022-08-22T14:53:40.489Z,97688.16
2022-08-22T14:56:27.810Z,97685.94
2022-08-22T14:59:24.014Z,97685.47
2022-08-22T15:02:02.707Z,97674.28
2022-08-22T15:04:49.930Z,97674.16
2022-08-22T15:07:33.565Z,97671.13
2022-08-22T15:10:06.520Z,97670.00
2022-08-22T15:12:40.398Z,97665.22
2022-08-22T15:15:53.451Z,97669.88
2022-08-22T15:18:23.354Z,97667.63
2022-08-22T15:21:10.073Z,97682.56
2022-08-22T15:23:45.007Z,97688.25
2022-08-22T15:26:55.348Z,97687.09
2022-08-22T15:29:29.038Z,97685.38
2022-08-22T15:32:02.430Z,97683.06
2022-08-22T15:34:41.929Z,97691.22
2022-08-22T15:37:18.426Z,97688.22
2022-08-22T15:40:08.353Z,97691.53
2022-08-22T15:42:51.451Z,97686.28
2022-08-22T15:45:38.444Z,97682.25
2022-08-22T15:48:33.681Z,97683.06
2022-08-22T15:51:10.510Z,97690.97
2022-08-22T15:53:44.552Z,97686.91
2022-08-22T15:56:12.101Z,97685.38
2022-08-22T15:58:53.015Z,97685.00
2022-08-22T16:01:25.694Z,97675.50
2022-08-22T16:04:12.437Z,97671.94
2022-08-22T16:06:58.252Z,97668.53
2022-08-22T16:09:52.309Z,97668.66
2022-08-22T16:12:47.834Z,97675.53
2022-08-22T16:15:54.069Z,97688.16
2022-08-22T16:18:39.242Z,97692.09
2022-08-22T16:21:22.209Z,97697.06
2022-08-22T16:23:56.789Z,97695.13
2022-08-22T16:26:30.758Z,97690.00
2022-08-22T16:29:19.672Z,97692.84
2022-08-22T16:31:46.775Z,97696.78
2022-08-22T16:34:17.038Z,97692.03
2022-08-22T16:37:03.203Z,97689.53
2022-08-22T16:39:43.266Z,97684.41
2022-08-22T16:42:13.502Z,97685.88
2022-08-22T16:45:11.174Z,97686.88
2022-08-22T16:47:52.679Z,97698.06
2022-08-22T16:50:34.279Z,97701.72
2022-08-22T16:53:21.491Z,97699.75
2022-08-22T16:56:17.189Z,97693.63
2022-08-22T16:58:59.176Z,97695.94
2022-08-22T17:02:05.665Z,97699.59
2022-08-22T17:05:18.384Z,97689.97
2022-08-22T17:08:10.009Z,97682.47
2022-08-22T17:11:17.978Z,97683.97
2022-08-22T17:14:22.937Z,97683.13
2022-08-22T17:17:24.700Z,97700.16
2022-08-22T17:20:23.725Z,97684.31
2022-08-22T17:22:54.321Z,97691.47
2022-08-22T17:25:50.405Z,97698.44
2022-08-22T17:28:34.207Z,97698.06
2022-08-22T17:31:30.442Z,97682.31
2022-08-22T17:34:15.272Z,97692.75
2022-08-22T17:37:02.889Z,97694.41
2022-08-22T17:39:54.469Z,97707.50
2022-08-22T17:43:07.658Z,97715.19
2022-08-22T17:46:13.370Z,97715.94
2022-08-22T17:49:01.023Z,97713.16
2022-08-22T17:51:39.257Z,97711.00
2022-08-22T17:54:29.674Z,97712.91
2022-08-22T17:57:11.965Z,97721.50
2022-08-22T18:00:11.361Z,97726.81
2022-08-22T18:02:56.475Z,97721.13
2022-08-22T18:05:34.156Z,97731.59
2022-08-22T18:11:43.174Z,97744.16
2022-08-22T18:14:51.540Z,97747.19
2022-08-22T18:17:39.900Z,97739.38
2022-08-22T18:20:17.482Z,97759.16
2022-08-22T18:22:56.946Z,97746.25
2022-08-22T18:25:35.901Z,97745.22
2022-08-22T18:28:26.208Z,97739.47
2022-08-22T18:31:21.728Z,97734.53
2022-08-22T18:34:01.138Z,97727.91
2022-08-22T18:36:50.500Z,97734.25
2022-08-22T18:39:31.555Z,97730.56
2022-08-22T18:42:21.209Z,97734.69
2022-08-22T18:44:48.826Z,97731.50
2022-08-22T18:47:32.815Z,97730.69
2022-08-22T18:50:32.548Z,97732.03
2022-08-22T18:53:01.059Z,97725.56
2022-08-22T18:55:55.004Z,97728.75
2022-08-22T18:58:58.907Z,97726.91
2022-08-22T19:02:04.350Z,97732.41
2022-08-22T19:05:01.880Z,97733.22
2022-08-22T19:07:51.123Z,97732.03
2022-08-22T19:10:41.525Z,97720.78
2022-08-22T19:13:26.689Z,97727.72
2022-08-22T19:16:25.655Z,97726.91
2022-08-22T19:19:01.428Z,97720.78
2022-08-22T19:21:51.710Z,97719.94
2022-08-22T19:24:28.161Z,97718.31
2022-08-22T19:27:10.316Z,97717.66
2022-08-22T19:29:37.661Z,97711.34
2022-08-22T19:32:12.956Z,97709.31
2022-08-22T19:34:44.138Z,97705.84
2022-08-22T19:37:30.759Z,97706.13
2022-08-22T19:40:09.039Z,97712.44
2022-08-22T19:42:44.190Z,97705.94
2022-08-22T19:45:29.196Z,97705.94
2022-08-22T19:48:15.649Z,97707.97
2022-08-22T19:50:43.851Z,97701.91
2022-08-22T19:53:33.548Z,97705.94
2022-08-22T19:56:34.021Z,97707.97
2022-08-22T19:59:36.911Z,97700.81
2022-08-22T20:02:37.089Z,97707.59
2022-08-22T20:05:27.196Z,97703.28
2022-08-22T20:08:32.879Z,97701.81
2022-08-22T20:11:24.847Z,97697.34
2022-08-22T20:14:30.365Z,97701.81
2022-08-22T20:17:14.640Z,97702.72
2022-08-22T20:20:30.434Z,97695.41
2022-08-22T20:23:09.012Z,97694.03
2022-08-22T20:25:53.072Z,97696.50
2022-08-22T20:28:50.862Z,97696.50
2022-08-22T20:31:30.116Z,97698.78
2022-08-22T20:34:03.627Z,97693.13
2022-08-22T20:36:31.931Z,97701.72
2022-08-22T20:39:08.271Z,97691.63
2022-08-22T20:41:41.962Z,97704.75
2022-08-22T20:44:23.153Z,97704.09
2022-08-22T20:47:06.040Z,97715.41
2022-08-22T20:49:44.360Z,97707.88
2022-08-22T20:52:36.320Z,97710.25
2022-08-22T20:55:13.247Z,97706.94
2022-08-22T20:57:55.056Z,97704.47
2022-08-22T21:00:29.381Z,97703.84
2022-08-22T21:03:20.865Z,97709.78
2022-08-22T21:05:48.089Z,97704.22
2022-08-22T21:08:22.635Z,97707.03
2022-08-22T21:11:19.031Z,97713.16
2022-08-22T21:13:47.325Z,97737.19
2022-08-22T21:16:33.186Z,97745.22
2022-08-22T21:19:04.155Z,97745.78
2022-08-22T21:21:35.509Z,97748.13
2022-08-22T21:24:07.654Z,97749.72
2022-08-22T21:26:46.428Z,97738.72
2022-08-22T21:29:13.744Z,97729.34
2022-08-22T21:31:51.419Z,97729.28
2022-08-22T21:34:43.011Z,97729.69
2022-08-22T21:37:18.212Z,97740.47
2022-08-22T21:39:50.793Z,97732.47
2022-08-22T21:42:44.297Z,97728.47
2022-08-22T21:45:31.965Z,97728.00
2022-08-22T21:47:59.884Z,97725.47
2022-08-22T21:50:37.950Z,97729.75
2022-08-22T21:53:24.880Z,97741.19
2022-08-22T21:56:13.652Z,97735.53
2022-08-22T21:58:42.028Z,97734.94
2022-08-22T22:01:32.350Z,97728.28
2022-08-22T22:04:00.397Z,97716.59
2022-08-22T22:06:47.022Z,97722.81
2022-08-22T22:09:15.255Z,97704.41
2022-08-22T22:11:43.167Z,97702.06
2022-08-22T22:14:10.790Z,97681.19
2022-08-22T22:16:38.536Z,97670.94
2022-08-22T22:19:08.650Z,97661.97
2022-08-22T22:21:37.329Z,97664.78
2022-08-22T22:24:04.838Z,97660.34
2022-08-22T22:26:37.360Z,97661.16
2022-08-22T22:29:04.717Z,97666.66
2022-08-22T22:31:32.106Z,97656.03
2022-08-22T22:34:01.432Z,97663.19
2022-08-22T22:36:29.155Z,97652.75
2022-08-22T22:38:56.954Z,97654.75
2022-08-22T22:41:25.843Z,97669.03
2022-08-22T22:43:55.306Z,97656.41
2022-08-22T22:46:23.913Z,97662.53
2022-08-22T22:48:51.395Z,97669.97
2022-08-22T22:51:19.399Z,97661.00
2022-08-22T22:53:47.670Z,97658.03
2022-08-22T22:56:21.474Z,97656.19
2022-08-22T22:58:50.601Z,97649.91
2022-08-22T23:01:27.990Z,97640.28
2022-08-22T23:03:58.585Z,97635.16
2022-08-22T23:06:32.434Z,97632.84
2022-08-22T23:08:59.781Z,97630.53
2022-08-22T23:11:30.645Z,97638.50
2022-08-22T23:13:58.220Z,97648.75
2022-08-22T23:16:33.961Z,97661.16
2022-08-22T23:19:13.336Z,97669.66
2022-08-22T23:21:42.779Z,97667.63
2022-08-22T23:24:11.547Z,97669.66
2022-08-22T23:26:39.962Z,97667.63
2022-08-22T23:29:08.032Z,97662.78
2022-08-22T23:31:42.951Z,97658.97
2022-08-22T23:34:15.017Z,97647.38
2022-08-22T23:36:47.138Z,97663.28
2022-08-22T23:39:17.972Z,97655.31
2022-08-22T23:41:46.902Z,97665.75
2022-08-22T23:44:18.236Z,97663.09
2022-08-22T23:46:45.903Z,97649.19
2022-08-22T23:49:15.728Z,97651.47
2022-08-22T23:51:45.914Z,97654.31
2022-08-22T23:54:14.620Z,97655.13
2022-08-22T23:56:51.557Z,97646.22
2022-08-22T23:59:28.069Z,97650.72
